createdAt,value
2023-01-12T00:02:24.591Z,6.30
2023-01-12T00:04:53.115Z,6.10
2023-01-12T00:07:21.573Z,6.23
2023-01-12T00:09:50.579Z,6.31
2023-01-12T00:12:20.296Z,6.40
2023-01-12T00:14:48.801Z,6.27
2023-01-12T00:17:19.588Z,6.52
2023-01-12T00:19:48.541Z,6.41
2023-01-12T00:22:18.378Z,6.41
2023-01-12T00:24:49.783Z,6.32
2023-01-12T00:27:22.380Z,6.23
2023-01-12T00:29:51.219Z,6.40
2023-01-12T00:32:21.776Z,6.36
2023-01-12T00:34:50.454Z,6.26
2023-01-12T00:37:20.681Z,6.23
2023-01-12T00:40:01.523Z,6.15
2023-01-12T00:42:49.454Z,6.25
2023-01-12T00:45:24.235Z,6.32
2023-01-12T00:47:53.319Z,6.35
2023-01-12T00:50:21.782Z,6.44
2023-01-12T00:52:50.315Z,6.09
2023-01-12T00:55:18.828Z,6.31
2023-01-12T00:57:48.641Z,6.34
2023-01-12T01:00:18.652Z,6.36
2023-01-12T01:02:47.274Z,6.41
2023-01-12T01:05:16.138Z,6.51
2023-01-12T01:07:46.368Z,6.56
2023-01-12T01:10:15.715Z,6.54
2023-01-12T01:12:44.356Z,6.32
2023-01-12T01:15:14.391Z,6.33
2023-01-12T01:17:42.720Z,6.43
2023-01-12T01:20:13.073Z,6.25
2023-01-12T01:22:41.480Z,6.30
2023-01-12T01:25:10.987Z,6.41
2023-01-12T01:27:39.401Z,6.41
2023-01-12T01:30:09.772Z,6.30
2023-01-12T01:32:39.414Z,6.41
2023-01-12T01:35:08.230Z,6.42
2023-01-12T01:37:36.600Z,6.38
2023-01-12T01:40:05.687Z,6.44
2023-01-12T01:42:34.115Z,6.56
2023-01-12T01:45:05.973Z,6.68
2023-01-12T01:47:41.836Z,6.64
2023-01-12T01:50:19.305Z,6.70
2023-01-12T01:52:52.888Z,6.71
2023-01-12T01:55:25.553Z,6.85
2023-01-12T01:57:59.815Z,6.84
2023-01-12T02:00:28.887Z,6.69
2023-01-12T02:03:00.754Z,6.55
2023-01-12T02:05:29.909Z,6.36
2023-01-12T02:08:05.699Z,6.28
2023-01-12T02:10:34.361Z,6.17
2023-01-12T02:13:20.132Z,5.76
2023-01-12T02:16:15.767Z,5.99
2023-01-12T02:18:55.590Z,6.04
2023-01-12T02:22:02.263Z,5.90
2023-01-12T02:25:07.634Z,6.10
2023-01-12T02:27:59.401Z,6.09
2023-01-12T02:31:18.068Z,6.02
2023-01-12T02:34:02.457Z,6.00
2023-01-12T02:36:38.663Z,5.94
2023-01-12T02:39:18.413Z,5.89
2023-01-12T02:42:17.359Z,6.00
2023-01-12T02:44:56.521Z,5.89
2023-01-12T02:47:37.822Z,5.98
2023-01-12T02:50:12.085Z,6.02
2023-01-12T02:52:45.581Z,6.03
2023-01-12T02:55:17.245Z,5.81
2023-01-12T02:57:46.216Z,6.03
2023-01-12T03:00:18.660Z,5.90
2023-01-12T03:02:48.390Z,6.05
2023-01-12T03:05:16.981Z,6.01
2023-01-12T03:07:54.430Z,6.06
2023-01-12T03:11:00.193Z,6.07
2023-01-12T03:13:32.340Z,6.05
2023-01-12T03:16:02.234Z,5.80
2023-01-12T03:18:35.398Z,5.88
2023-01-12T03:21:10.409Z,5.80
2023-01-12T03:23:45.769Z,5.94
2023-01-12T03:26:18.558Z,5.90
2023-01-12T03:28:51.523Z,6.05
2023-01-12T03:31:21.885Z,5.89
2023-01-12T03:33:52.446Z,5.89
2023-01-12T03:36:34.273Z,5.86
2023-01-12T03:39:12.903Z,5.88
2023-01-12T03:41:56.179Z,5.79
2023-01-12T03:44:33.559Z,5.93
2023-01-12T03:47:10.006Z,5.91
2023-01-12T03:49:48.053Z,6.01
2023-01-12T03:52:18.921Z,6.00
2023-01-12T03:54:49.523Z,5.90
2023-01-12T03:57:19.979Z,5.95
2023-01-12T03:59:48.586Z,5.73
2023-01-12T04:02:16.997Z,5.89
2023-01-12T04:04:46.980Z,6.02
2023-01-12T04:07:15.331Z,5.87
2023-01-12T04:09:43.663Z,5.81
2023-01-12T04:12:11.237Z,5.87
2023-01-12T04:14:40.837Z,5.84
2023-01-12T04:17:11.348Z,5.89
2023-01-12T04:19:39.797Z,5.82
2023-01-12T04:22:32.506Z,5.57
2023-01-12T04:25:00.956Z,5.91
2023-01-12T04:27:29.420Z,5.91
2023-01-12T04:29:58.671Z,5.64
2023-01-12T04:32:27.016Z,5.92
2023-01-12T04:34:55.350Z,5.91
2023-01-12T04:37:25.230Z,5.84
2023-01-12T04:39:53.506Z,5.83
2023-01-12T04:42:39.516Z,5.81
2023-01-12T04:45:09.409Z,5.86
2023-01-12T04:47:37.845Z,5.90
2023-01-12T04:50:07.971Z,5.87
2023-01-12T04:52:38.946Z,5.98
2023-01-12T04:55:08.109Z,5.95
2023-01-12T04:57:37.097Z,5.88
2023-01-12T05:00:07.729Z,5.91
2023-01-12T05:02:36.092Z,6.00
2023-01-12T05:05:05.316Z,5.98
2023-01-12T05:07:33.873Z,5.96
2023-01-12T05:10:29.616Z,5.91
2023-01-12T05:12:58.098Z,5.97
2023-01-12T05:15:26.474Z,5.97
2023-01-12T05:17:54.994Z,5.94
2023-01-12T05:20:23.490Z,5.84
2023-01-12T05:22:52.644Z,5.99
2023-01-12T05:25:22.434Z,6.00
2023-01-12T05:27:50.821Z,5.93
2023-01-12T05:30:19.242Z,5.90
2023-01-12T05:32:47.684Z,5.86
2023-01-12T05:35:16.242Z,5.97
2023-01-12T05:37:44.671Z,6.00
2023-01-12T05:40:15.462Z,6.05
2023-01-12T05:43:02.852Z,6.10
2023-01-12T05:45:31.265Z,6.06
2023-01-12T05:48:01.468Z,6.07
2023-01-12T05:50:30.174Z,5.86
2023-01-12T05:53:10.654Z,6.21
2023-01-12T05:55:39.573Z,6.21
2023-01-12T05:58:09.387Z,6.18
2023-01-12T06:00:37.792Z,6.13
2023-01-12T06:03:06.241Z,6.23
2023-01-12T06:05:34.641Z,6.17
2023-01-12T06:08:03.049Z,6.28
2023-01-12T06:10:34.280Z,6.21
2023-01-12T06:13:19.941Z,6.05
2023-01-12T06:15:49.865Z,6.28
2023-01-12T06:18:22.634Z,6.09
2023-01-12T06:20:51.340Z,6.32
2023-01-12T06:23:19.746Z,6.27
2023-01-12T06:25:48.020Z,6.35
2023-01-12T06:28:16.452Z,6.37
2023-01-12T06:30:45.011Z,6.49
2023-01-12T06:33:14.721Z,6.51
2023-01-12T06:35:50.091Z,6.49
2023-01-12T06:38:19.103Z,6.57
2023-01-12T06:40:48.196Z,6.59
2023-01-12T06:43:16.933Z,6.39
2023-01-12T06:45:45.665Z,6.30
2023-01-12T06:48:15.346Z,6.61
2023-01-12T06:50:43.861Z,6.64
2023-01-12T06:53:12.287Z,6.65
2023-01-12T06:55:40.969Z,6.71
2023-01-12T06:58:09.310Z,6.78
2023-01-12T07:00:37.702Z,6.72
2023-01-12T07:03:06.190Z,6.63
2023-01-12T07:05:35.944Z,6.74
2023-01-12T07:08:04.298Z,6.74
2023-01-12T07:10:32.954Z,6.78
2023-01-12T07:13:02.093Z,6.94
2023-01-12T07:15:30.564Z,6.86
2023-01-12T07:17:59.469Z,6.99
2023-01-12T07:20:29.406Z,6.91
2023-01-12T07:22:59.262Z,6.60
2023-01-12T07:25:27.919Z,6.94
2023-01-12T07:27:58.483Z,6.80
2023-01-12T07:30:28.114Z,7.52
2023-01-12T07:32:56.814Z,7.02
2023-01-12T07:35:25.415Z,7.15
2023-01-12T07:37:55.376Z,6.96
2023-01-12T07:40:25.273Z,7.10
2023-01-12T07:43:00.435Z,7.07
2023-01-12T07:45:30.163Z,6.96
2023-01-12T07:47:59.055Z,7.15
2023-01-12T07:50:29.616Z,7.21
2023-01-12T07:53:02.635Z,7.15
2023-01-12T07:55:33.159Z,7.09
2023-01-12T07:58:04.328Z,7.14
2023-01-12T08:00:33.252Z,7.11
2023-01-12T08:03:10.172Z,7.21
2023-01-12T08:05:39.890Z,7.05
2023-01-12T08:08:08.783Z,7.28
2023-01-12T08:10:38.771Z,7.34
2023-01-12T08:13:07.164Z,7.31
2023-01-12T08:15:41.391Z,7.33
2023-01-12T08:18:16.299Z,7.25
2023-01-12T08:20:45.525Z,7.31
2023-01-12T08:23:18.961Z,6.96
2023-01-12T08:25:56.758Z,6.93
2023-01-12T08:28:31.746Z,7.36
2023-01-12T08:31:00.687Z,7.38
2023-01-12T08:33:29.117Z,7.32
2023-01-12T08:35:57.714Z,7.16
2023-01-12T08:38:26.195Z,7.26
2023-01-12T08:41:13.212Z,7.40
2023-01-12T08:43:59.334Z,7.37
2023-01-12T08:46:27.764Z,7.33
2023-01-12T08:48:56.102Z,7.36
2023-01-12T08:51:24.707Z,7.44
2023-01-12T08:53:53.111Z,7.47
2023-01-12T08:56:25.262Z,7.44
2023-01-12T08:58:53.621Z,7.53
2023-01-12T09:01:22.144Z,7.59
2023-01-12T09:03:50.698Z,7.56
2023-01-12T09:06:22.215Z,7.67
2023-01-12T09:08:55.939Z,7.62
2023-01-12T09:11:27.083Z,7.66
2023-01-12T09:13:56.304Z,7.64
2023-01-12T09:16:24.897Z,7.47
2023-01-12T09:18:53.485Z,7.40
2023-01-12T09:21:24.254Z,7.44
2023-01-12T09:23:53.718Z,7.55
2023-01-12T09:26:28.268Z,7.59
2023-01-12T09:28:57.044Z,7.51
2023-01-12T09:31:25.479Z,7.66
2023-01-12T09:33:54.585Z,7.57
2023-01-12T09:36:25.744Z,7.53
2023-01-12T09:38:55.400Z,7.55
2023-01-12T09:41:45.812Z,7.75
2023-01-12T09:44:37.763Z,7.74
2023-01-12T09:47:17.368Z,7.83
2023-01-12T09:49:55.878Z,7.88
2023-01-12T09:52:30.967Z,7.98
2023-01-12T09:54:59.487Z,8.02
2023-01-12T09:58:05.679Z,7.90
2023-01-12T10:00:34.232Z,7.84
2023-01-12T10:03:15.354Z,7.86
2023-01-12T10:05:48.850Z,7.98
2023-01-12T10:08:29.183Z,7.97
2023-01-12T10:11:17.136Z,8.01
2023-01-12T10:14:45.747Z,8.07
2023-01-12T10:17:50.265Z,7.90
2023-01-12T10:20:28.556Z,7.87
2023-01-12T10:23:02.621Z,8.00
2023-01-12T10:25:38.598Z,7.91
2023-01-12T10:28:15.165Z,8.09
2023-01-12T10:30:44.113Z,7.95
2023-01-12T10:33:17.700Z,7.68
2023-01-12T10:35:57.405Z,7.87
2023-01-12T10:38:30.083Z,7.88
2023-01-12T10:41:17.828Z,8.01
2023-01-12T10:43:48.050Z,7.72
2023-01-12T10:46:18.954Z,7.70
2023-01-12T10:48:50.821Z,7.85
2023-01-12T10:51:26.979Z,7.60
2023-01-12T10:54:01.102Z,8.00
2023-01-12T10:56:36.767Z,7.89
2023-01-12T10:59:18.002Z,7.89
2023-01-12T11:01:49.546Z,7.66
2023-01-12T11:04:23.168Z,7.90
2023-01-12T11:07:10.237Z,7.84
2023-01-12T11:09:39.052Z,7.69
2023-01-12T11:12:25.163Z,7.80
2023-01-12T11:15:03.379Z,7.88
2023-01-12T11:17:50.088Z,7.92
2023-01-12T11:20:29.756Z,7.94
2023-01-12T11:23:02.388Z,8.01
2023-01-12T11:25:36.440Z,7.98
2023-01-12T11:28:14.157Z,7.93
2023-01-12T11:30:48.656Z,7.98
2023-01-12T11:33:21.876Z,7.78
2023-01-12T11:36:00.415Z,7.72
2023-01-12T11:38:36.519Z,7.99
2023-01-12T11:41:09.681Z,8.05
2023-01-12T11:43:55.545Z,7.90
2023-01-12T11:46:29.331Z,7.97
2023-01-12T11:49:11.876Z,8.00
2023-01-12T11:51:42.237Z,8.09
2023-01-12T11:54:17.272Z,7.90
2023-01-12T11:57:07.851Z,7.98
2023-01-12T11:59:47.025Z,7.86
2023-01-12T12:02:34.072Z,7.98
2023-01-12T12:05:17.252Z,7.71
2023-01-12T12:08:05.364Z,7.78
2023-01-12T12:10:44.511Z,7.94
2023-01-12T12:13:32.185Z,7.83
2023-01-12T12:16:19.647Z,7.86
2023-01-12T12:19:05.131Z,8.06
2023-01-12T12:21:49.286Z,8.11
2023-01-12T12:24:48.749Z,8.12
2023-01-12T12:27:33.683Z,8.07
2023-01-12T12:30:25.396Z,8.14
2023-01-12T12:33:02.642Z,8.10
2023-01-12T12:35:45.864Z,8.04
2023-01-12T12:38:29.334Z,8.05
2023-01-12T12:41:43.390Z,8.01
2023-01-12T12:44:55.291Z,7.94
2023-01-12T12:47:48.960Z,8.00
2023-01-12T12:50:22.400Z,7.94
2023-01-12T12:53:12.482Z,7.88
2023-01-12T12:55:42.393Z,8.09
2023-01-12T12:58:46.143Z,7.98
2023-01-12T13:01:58.400Z,8.00
2023-01-12T13:05:06.027Z,7.90
2023-01-12T13:07:45.379Z,7.97
2023-01-12T13:10:30.446Z,7.97
2023-01-12T13:13:28.429Z,7.90
2023-01-12T13:16:51.656Z,7.93
2023-01-12T13:19:39.455Z,7.96
2023-01-12T13:22:31.170Z,7.86
2023-01-12T13:25:01.805Z,7.87
2023-01-12T13:27:52.439Z,8.11
2023-01-12T13:30:40.343Z,8.05
2023-01-12T13:33:35.903Z,7.57
2023-01-12T13:36:10.774Z,8.02
2023-01-12T13:39:08.222Z,8.09
2023-01-12T13:41:55.439Z,8.13
2023-01-12T13:44:31.686Z,7.99
2023-01-12T13:47:09.078Z,8.12
2023-01-12T13:49:47.935Z,7.95
2023-01-12T13:52:31.894Z,7.90
2023-01-12T13:55:01.390Z,8.10
2023-01-12T13:57:34.888Z,8.00
2023-01-12T14:00:09.233Z,8.10
2023-01-12T14:02:42.249Z,7.69
2023-01-12T14:05:33.388Z,7.89
2023-01-12T14:08:30.654Z,7.78
2023-01-12T14:11:13.848Z,7.77
2023-01-12T14:14:20.050Z,8.00
2023-01-12T14:17:06.085Z,7.84
2023-01-12T14:19:34.513Z,7.77
2023-01-12T14:22:07.216Z,7.82
2023-01-12T14:24:35.584Z,7.87
2023-01-12T14:27:17.811Z,8.03
2023-01-12T14:29:46.169Z,7.95
2023-01-12T14:32:15.684Z,7.84
2023-01-12T14:34:52.986Z,7.78
2023-01-12T14:37:31.364Z,7.28
2023-01-12T14:40:00.368Z,7.88
2023-01-12T14:42:46.275Z,7.81
2023-01-12T14:45:42.696Z,7.88
2023-01-12T14:48:26.610Z,7.94
2023-01-12T14:51:04.696Z,7.90
2023-01-12T14:53:39.658Z,7.52
2023-01-12T14:56:21.840Z,7.84
2023-01-12T14:58:50.703Z,7.79
2023-01-12T15:01:34.036Z,7.97
2023-01-12T15:04:03.001Z,7.93
2023-01-12T15:06:32.605Z,7.78
2023-01-12T15:09:03.609Z,7.92
2023-01-12T15:11:40.978Z,7.85
2023-01-12T15:14:24.985Z,7.87
2023-01-12T15:17:11.920Z,7.74
2023-01-12T15:19:58.791Z,7.61
2023-01-12T15:22:47.134Z,7.65
2023-01-12T15:25:37.869Z,7.70
2023-01-12T15:28:08.918Z,7.83
2023-01-12T15:30:39.901Z,7.88
2023-01-12T15:33:10.131Z,7.85
2023-01-12T15:35:46.447Z,7.80
2023-01-12T15:38:18.083Z,7.82
2023-01-12T15:40:48.957Z,7.80
2023-01-12T15:43:18.874Z,7.74
2023-01-12T15:45:48.761Z,7.77
2023-01-12T15:48:17.269Z,7.69
2023-01-12T15:50:47.447Z,7.74
2023-01-12T15:53:19.538Z,7.53
2023-01-12T15:55:50.224Z,7.74
2023-01-12T15:58:19.654Z,7.82
2023-01-12T16:00:48.564Z,7.69
2023-01-12T16:03:49.064Z,7.73
2023-01-12T16:06:07.652Z,7.80
2023-01-12T16:08:36.062Z,7.79
2023-01-12T16:11:13.690Z,7.81
2023-01-12T16:13:42.771Z,7.79
2023-01-12T16:16:15.980Z,7.76
2023-01-12T16:18:44.895Z,7.67
2023-01-12T16:21:18.204Z,7.73
2023-01-12T16:23:47.099Z,7.84
2023-01-12T16:26:16.856Z,7.71
2023-01-12T16:28:45.549Z,7.62
2023-01-12T16:31:15.820Z,7.71
2023-01-12T16:33:46.152Z,7.73
2023-01-12T16:36:16.967Z,7.52
2023-01-12T16:38:45.339Z,7.88
2023-01-12T16:41:19.007Z,8.07
2023-01-12T16:43:47.809Z,7.84
2023-01-12T16:46:17.316Z,7.82
2023-01-12T16:48:45.734Z,7.75
2023-01-12T16:51:15.358Z,7.71
2023-01-12T16:53:45.047Z,7.51
2023-01-12T16:56:17.218Z,7.77
2023-01-12T16:58:48.706Z,7.80
2023-01-12T17:01:21.329Z,7.76
2023-01-12T17:03:50.706Z,7.60
2023-01-12T17:06:22.518Z,7.57
2023-01-12T17:08:51.050Z,7.75
2023-01-12T17:11:23.807Z,7.71
2023-01-12T17:13:55.388Z,7.79
2023-01-12T17:16:25.964Z,7.57
2023-01-12T17:18:55.060Z,7.75
2023-01-12T17:21:24.583Z,7.63
2023-01-12T17:23:53.567Z,7.66
2023-01-12T17:26:24.191Z,7.50
2023-01-12T17:28:55.928Z,7.71
2023-01-12T17:31:24.501Z,7.77
2023-01-12T17:33:53.185Z,7.47
2023-01-12T17:36:21.627Z,7.74
2023-01-12T17:38:50.139Z,7.71
2023-01-12T17:41:32.391Z,7.64
2023-01-12T17:44:06.097Z,7.53
2023-01-12T17:46:34.958Z,7.73
2023-01-12T17:49:05.583Z,7.59
2023-01-12T17:51:34.877Z,7.64
2023-01-12T17:54:05.724Z,7.70
2023-01-12T17:56:35.494Z,7.69
2023-01-12T17:59:06.784Z,7.80
2023-01-12T18:01:37.627Z,7.70
2023-01-12T18:04:06.387Z,7.79
2023-01-12T18:06:34.876Z,7.72
2023-01-12T18:09:03.565Z,7.81
2023-01-12T18:11:32.834Z,7.79
2023-01-12T18:14:02.254Z,7.55
2023-01-12T18:16:32.771Z,7.64
2023-01-12T18:19:04.558Z,7.78
2023-01-12T18:21:34.593Z,7.77
2023-01-12T18:24:03.494Z,7.76
2023-01-12T18:26:35.882Z,7.71
2023-01-12T18:29:06.781Z,7.63
2023-01-12T18:31:38.393Z,7.71
2023-01-12T18:34:08.909Z,7.59
2023-01-12T18:36:39.682Z,7.67
2023-01-12T18:39:12.241Z,7.79
2023-01-12T18:41:57.961Z,7.66
2023-01-12T18:44:27.307Z,7.61
2023-01-12T18:47:16.667Z,7.73
2023-01-12T18:49:46.831Z,7.72
2023-01-12T18:52:33.464Z,7.66
2023-01-12T18:55:02.145Z,7.91
2023-01-12T18:57:33.285Z,7.85
2023-01-12T19:00:16.302Z,7.99
2023-01-12T19:02:46.968Z,7.79
2023-01-12T19:05:24.455Z,7.91
2023-01-12T19:08:05.229Z,7.87
2023-01-12T19:10:35.167Z,7.76
2023-01-12T19:13:21.233Z,7.75
2023-01-12T19:16:07.110Z,7.75
2023-01-12T19:18:38.419Z,7.48
2023-01-12T19:21:27.442Z,7.79
2023-01-12T19:24:13.292Z,7.86
2023-01-12T19:26:59.526Z,7.68
2023-01-12T19:29:28.188Z,7.71
2023-01-12T19:31:56.779Z,7.78
2023-01-12T19:34:29.669Z,7.86
2023-01-12T19:36:58.222Z,7.80
2023-01-12T19:39:46.354Z,7.83
2023-01-12T19:42:32.467Z,7.78
2023-01-12T19:45:02.916Z,7.83
2023-01-12T19:47:31.384Z,7.69
2023-01-12T19:50:03.095Z,7.45
2023-01-12T19:52:31.591Z,7.60
2023-01-12T19:55:00.115Z,7.64
2023-01-12T19:57:28.619Z,7.70
2023-01-12T19:59:57.362Z,7.40
2023-01-12T20:02:26.166Z,7.68
2023-01-12T20:04:54.929Z,7.53
2023-01-12T20:07:24.745Z,7.69
2023-01-12T20:09:53.700Z,7.80
2023-01-12T20:12:22.370Z,7.78
2023-01-12T20:14:52.064Z,7.85
2023-01-12T20:17:20.564Z,7.84
2023-01-12T20:19:49.441Z,7.97
2023-01-12T20:22:18.937Z,7.76
2023-01-12T20:24:50.501Z,7.83
2023-01-12T20:27:20.313Z,7.76
2023-01-12T20:29:48.757Z,7.68
2023-01-12T20:32:17.728Z,7.68
2023-01-12T20:34:46.175Z,7.84
2023-01-12T20:37:14.989Z,7.81
2023-01-12T20:39:43.693Z,7.41
2023-01-12T20:42:14.783Z,7.69
2023-01-12T20:44:43.417Z,7.90
2023-01-12T20:47:12.116Z,7.83
2023-01-12T20:49:40.667Z,7.78
2023-01-12T20:52:09.266Z,7.74
2023-01-12T20:54:37.844Z,7.73
2023-01-12T20:57:06.537Z,7.71
2023-01-12T20:59:36.656Z,7.61
2023-01-12T21:02:06.032Z,7.49
2023-01-12T21:04:34.851Z,7.38
2023-01-12T21:07:03.801Z,7.36
2023-01-12T21:09:37.150Z,7.45
2023-01-12T21:12:05.848Z,7.49
2023-01-12T21:14:36.480Z,7.24
2023-01-12T21:17:06.244Z,7.57
2023-01-12T21:19:35.379Z,7.42
2023-01-12T21:22:04.132Z,7.57
2023-01-12T21:24:32.509Z,7.62
2023-01-12T21:27:00.945Z,7.55
2023-01-12T21:29:29.473Z,7.58
2023-01-12T21:31:59.759Z,7.57
2023-01-12T21:34:28.151Z,7.53
2023-01-12T21:36:57.158Z,7.54
2023-01-12T21:39:25.772Z,7.49
2023-01-12T21:42:13.562Z,7.00
2023-01-12T21:44:42.143Z,7.62
2023-01-12T21:47:13.408Z,7.66
2023-01-12T21:49:42.427Z,7.21
2023-01-12T21:52:12.956Z,7.63
2023-01-12T21:54:44.191Z,7.61
2023-01-12T21:57:12.979Z,7.26
2023-01-12T21:59:42.681Z,7.54
2023-01-12T22:02:14.232Z,7.46
2023-01-12T22:04:47.851Z,7.46
2023-01-12T22:07:17.607Z,7.20
2023-01-12T22:09:48.330Z,7.07
2023-01-12T22:12:19.477Z,7.15
2023-01-12T22:14:50.029Z,7.04
2023-01-12T22:17:20.049Z,7.06
2023-01-12T22:19:50.416Z,6.75
2023-01-12T22:22:19.225Z,7.08
2023-01-12T22:24:53.217Z,6.95
2023-01-12T22:27:30.386Z,7.07
2023-01-12T22:30:01.905Z,6.21
2023-01-12T22:32:34.988Z,7.02
2023-01-12T22:35:09.359Z,6.44
2023-01-12T22:37:42.767Z,7.07
2023-01-12T22:40:13.922Z,6.90
2023-01-12T22:43:01.979Z,5.81
2023-01-12T22:45:31.079Z,6.80
2023-01-12T22:48:08.244Z,6.08
2023-01-12T22:50:37.586Z,6.54
2023-01-12T22:53:06.313Z,6.61
2023-01-12T22:55:35.751Z,6.49
2023-01-12T22:58:07.597Z,6.45
2023-01-12T23:00:38.705Z,6.42
2023-01-12T23:03:17.091Z,6.38
2023-01-12T23:05:52.016Z,5.70
2023-01-12T23:08:20.532Z,5.39
2023-01-12T23:10:49.307Z,5.40
2023-01-12T23:13:22.716Z,6.25
2023-01-12T23:15:56.553Z,4.88
2023-01-12T23:18:29.438Z,6.01
2023-01-12T23:21:11.090Z,6.02
2023-01-12T23:23:43.348Z,6.13
2023-01-12T23:26:15.807Z,6.04
2023-01-12T23:28:54.730Z,5.71
2023-01-12T23:31:27.617Z,5.56
2023-01-12T23:33:59.717Z,5.92
2023-01-12T23:36:30.910Z,5.10
2023-01-12T23:39:03.044Z,5.34
2023-01-12T23:41:34.322Z,4.63
2023-01-12T23:44:05.701Z,5.66
2023-01-12T23:46:43.155Z,5.77
2023-01-12T23:49:15.913Z,4.99
2023-01-12T23:51:48.349Z,4.96
2023-01-12T23:54:22.353Z,5.15
2023-01-12T23:56:53.485Z,4.77
2023-01-12T23:59:22.311Z,4.98
